createdAt,value
2022-12-13T00:01:48.006Z,16.83
2022-12-13T00:04:17.962Z,16.40
2022-12-13T00:06:46.353Z,12.97
2022-12-13T00:09:15.591Z,21.33
2022-12-13T00:11:43.857Z,14.50
2022-12-13T00:14:13.955Z,17.93
2022-12-13T00:16:42.647Z,17.30
2022-12-13T00:19:10.854Z,14.40
2022-12-13T00:21:40.528Z,14.63
2022-12-13T00:24:09.220Z,17.60
2022-12-13T00:26:38.247Z,11.20
2022-12-13T00:29:07.898Z,23.47
2022-12-13T00:31:58.683Z,15.73
2022-12-13T00:34:24.791Z,16.57
2022-12-13T00:36:54.916Z,13.90
2022-12-13T00:39:24.015Z,18.90
2022-12-13T00:41:52.282Z,15.70
2022-12-13T00:44:20.781Z,15.40
2022-12-13T00:46:51.683Z,13.67
2022-12-13T00:49:20.183Z,14.57
2022-12-13T00:51:49.648Z,19.70
2022-12-13T00:54:19.738Z,16.17
2022-12-13T00:56:47.951Z,17.83
2022-12-13T00:59:17.406Z,11.87
2022-12-13T01:01:46.084Z,16.60
2022-12-13T01:04:14.913Z,21.90
2022-12-13T01:06:45.226Z,12.07
2022-12-13T01:09:18.248Z,19.30
2022-12-13T01:11:48.532Z,13.47
2022-12-13T01:14:17.397Z,15.30
2022-12-13T01:16:45.662Z,18.20
2022-12-13T01:19:13.976Z,17.17
2022-12-13T01:21:42.316Z,16.20
2022-12-13T01:24:10.619Z,19.10
2022-12-13T01:26:38.956Z,16.43
2022-12-13T01:29:11.307Z,18.80
2022-12-13T01:31:41.570Z,9.73
2022-12-13T01:34:11.296Z,15.57
2022-12-13T01:36:39.729Z,12.90
2022-12-13T01:39:15.189Z,15.93
2022-12-13T01:41:44.388Z,12.57
2022-12-13T01:44:27.512Z,17.83
2022-12-13T01:46:58.206Z,13.50
2022-12-13T01:49:26.459Z,11.27
2022-12-13T01:51:55.897Z,13.70
2022-12-13T01:54:33.703Z,15.80
2022-12-13T01:57:04.320Z,15.37
2022-12-13T01:59:32.894Z,17.80
2022-12-13T02:02:02.820Z,12.43
2022-12-13T02:04:33.066Z,12.47
2022-12-13T02:07:02.370Z,13.13
2022-12-13T02:09:30.655Z,13.80
2022-12-13T02:11:59.162Z,17.97
2022-12-13T02:14:27.379Z,16.67
2022-12-13T02:17:00.845Z,17.25
2022-12-13T02:19:49.944Z,15.00
2022-12-13T02:22:26.136Z,17.30
2022-12-13T02:24:59.825Z,12.50
2022-12-13T02:27:34.924Z,12.52
2022-12-13T02:30:27.160Z,14.80
2022-12-13T02:33:13.399Z,12.17
2022-12-13T02:35:53.426Z,14.30
2022-12-13T02:38:26.651Z,13.73
2022-12-13T02:41:00.763Z,11.60
2022-12-13T02:43:34.022Z,17.73
2022-12-13T02:46:04.822Z,14.70
2022-12-13T02:48:36.314Z,16.20
2022-12-13T02:51:05.938Z,13.17
2022-12-13T02:53:35.003Z,12.27
2022-12-13T02:56:03.254Z,15.63
2022-12-13T02:58:34.811Z,13.33
2022-12-13T03:01:28.968Z,13.07
2022-12-13T03:04:04.611Z,14.32
2022-12-13T03:06:39.927Z,17.67
2022-12-13T03:09:15.114Z,19.50
2022-12-13T03:12:10.375Z,11.83
2022-12-13T03:14:41.520Z,18.35
2022-12-13T03:17:11.489Z,13.70
2022-12-13T03:19:39.835Z,16.23
2022-12-13T03:22:08.373Z,8.98
2022-12-13T03:24:36.580Z,9.50
2022-12-13T03:27:04.914Z,18.67
2022-12-13T03:29:33.383Z,13.70
2022-12-13T03:32:01.620Z,16.07
2022-12-13T03:34:44.275Z,16.05
2022-12-13T03:37:13.890Z,17.13
2022-12-13T03:39:42.189Z,12.70
2022-12-13T03:42:10.403Z,10.27
2022-12-13T03:44:38.636Z,19.75
2022-12-13T03:47:06.884Z,18.05
2022-12-13T03:49:36.522Z,22.27
2022-12-13T03:52:04.802Z,17.60
2022-12-13T03:54:33.324Z,18.20
2022-12-13T03:57:01.591Z,24.47
2022-12-13T03:59:29.856Z,12.00
2022-12-13T04:01:58.153Z,17.63
2022-12-13T04:04:26.475Z,18.73
2022-12-13T04:06:56.100Z,17.95
2022-12-13T04:09:24.433Z,17.35
2022-12-13T04:12:10.504Z,24.92
2022-12-13T04:14:38.714Z,21.02
2022-12-13T04:17:06.941Z,20.17
2022-12-13T04:19:35.177Z,26.47
2022-12-13T04:22:04.802Z,21.70
2022-12-13T04:24:33.103Z,25.92
2022-12-13T04:27:01.767Z,20.80
2022-12-13T04:29:34.297Z,24.02
2022-12-13T04:32:03.277Z,18.42
2022-12-13T04:34:36.857Z,13.65
2022-12-13T04:37:07.357Z,18.92
2022-12-13T04:39:35.581Z,23.63
2022-12-13T04:42:04.471Z,19.88
2022-12-13T04:44:36.917Z,19.02
2022-12-13T04:47:05.581Z,15.18
2022-12-13T04:49:34.210Z,26.13
2022-12-13T04:52:03.252Z,21.20
2022-12-13T04:54:36.405Z,17.33
2022-12-13T04:57:05.963Z,19.17
2022-12-13T04:59:34.251Z,24.05
2022-12-13T05:02:02.635Z,22.58
2022-12-13T05:04:33.120Z,23.98
2022-12-13T05:07:02.202Z,22.60
2022-12-13T05:09:30.437Z,24.93
2022-12-13T05:12:01.036Z,18.58
2022-12-13T05:14:30.239Z,13.80
2022-12-13T05:16:58.500Z,19.92
2022-12-13T05:19:31.109Z,23.15
2022-12-13T05:22:01.293Z,22.90
2022-12-13T05:24:30.867Z,18.92
2022-12-13T05:27:00.825Z,23.35
2022-12-13T05:29:30.252Z,16.83
2022-12-13T05:31:58.964Z,23.88
2022-12-13T05:34:27.494Z,21.80
2022-12-13T05:36:58.009Z,22.13
2022-12-13T05:39:29.915Z,20.65
2022-12-13T05:42:01.749Z,18.88
2022-12-13T05:44:32.501Z,27.43
2022-12-13T05:47:01.969Z,20.85
2022-12-13T05:49:31.336Z,36.73
2022-12-13T05:51:59.571Z,14.90
2022-12-13T05:54:27.993Z,22.30
2022-12-13T05:56:56.513Z,19.83
2022-12-13T05:59:24.869Z,21.90
2022-12-13T06:01:54.647Z,10.27
2022-12-13T06:04:23.601Z,23.80
2022-12-13T06:06:54.019Z,14.90
2022-12-13T06:09:22.759Z,19.58
2022-12-13T06:11:51.298Z,22.63
2022-12-13T06:14:22.768Z,26.77
2022-12-13T06:16:51.783Z,12.60
2022-12-13T06:19:21.492Z,22.50
2022-12-13T06:21:49.768Z,16.70
2022-12-13T06:24:18.486Z,26.45
2022-12-13T06:26:46.964Z,19.88
2022-12-13T06:29:24.207Z,20.17
2022-12-13T06:31:54.915Z,22.05
2022-12-13T06:34:31.742Z,24.73
2022-12-13T06:37:01.263Z,20.45
2022-12-13T06:39:33.262Z,33.70
2022-12-13T06:42:02.137Z,24.90
2022-12-13T06:44:30.375Z,25.83
2022-12-13T06:47:11.314Z,18.57
2022-12-13T06:49:43.407Z,17.70
2022-12-13T06:52:12.981Z,20.23
2022-12-13T06:54:41.709Z,14.90
2022-12-13T06:57:09.960Z,20.70
2022-12-13T06:59:38.328Z,22.53
2022-12-13T07:02:24.264Z,24.87
2022-12-13T07:04:56.126Z,23.50
2022-12-13T07:07:25.295Z,21.27
2022-12-13T07:09:53.572Z,26.67
2022-12-13T07:12:23.041Z,13.93
2022-12-13T07:14:51.336Z,22.67
2022-12-13T07:17:32.481Z,20.57
2022-12-13T07:20:04.569Z,22.48
2022-12-13T07:22:34.587Z,20.13
2022-12-13T07:25:04.820Z,17.43
2022-12-13T07:27:33.670Z,24.25
2022-12-13T07:30:01.987Z,18.17
2022-12-13T07:32:30.265Z,22.40
2022-12-13T07:34:58.570Z,24.40
2022-12-13T07:37:30.396Z,29.30
2022-12-13T07:40:04.229Z,18.80
2022-12-13T07:42:33.123Z,15.47
2022-12-13T07:45:01.552Z,20.27
2022-12-13T07:47:31.050Z,21.17
2022-12-13T07:49:59.387Z,27.27
2022-12-13T07:52:31.155Z,18.27
2022-12-13T07:54:59.403Z,24.10
2022-12-13T07:57:27.631Z,20.80
2022-12-13T07:59:55.919Z,23.35
2022-12-13T08:02:24.427Z,18.05
2022-12-13T08:04:54.735Z,24.83
2022-12-13T08:07:23.703Z,24.00
2022-12-13T08:09:53.487Z,18.27
2022-12-13T08:12:22.476Z,20.90
2022-12-13T08:14:55.455Z,22.67
2022-12-13T08:17:23.970Z,19.45
2022-12-13T08:19:52.447Z,23.00
2022-12-13T08:22:23.757Z,27.27
2022-12-13T08:24:54.019Z,21.95
2022-12-13T08:27:22.274Z,24.25
2022-12-13T08:29:50.512Z,20.13
2022-12-13T08:32:18.814Z,18.40
2022-12-13T08:34:47.210Z,16.90
2022-12-13T08:37:15.862Z,19.23
2022-12-13T08:39:44.821Z,17.15
2022-12-13T08:42:18.176Z,29.08
2022-12-13T08:44:48.564Z,21.98
2022-12-13T08:47:24.329Z,17.83
2022-12-13T08:49:54.463Z,16.45
2022-12-13T08:52:23.357Z,18.42
2022-12-13T08:54:51.696Z,18.08
2022-12-13T08:57:21.330Z,13.80
2022-12-13T08:59:49.977Z,19.75
2022-12-13T09:02:18.445Z,12.40
2022-12-13T09:04:46.780Z,18.15
2022-12-13T09:07:15.213Z,20.67
2022-12-13T09:09:43.740Z,27.00
2022-12-13T09:12:30.561Z,24.20
2022-12-13T09:15:01.915Z,20.07
2022-12-13T09:17:37.046Z,20.70
2022-12-13T09:20:10.395Z,18.27
2022-12-13T09:23:01.708Z,21.67
2022-12-13T09:25:37.346Z,10.13
2022-12-13T09:28:06.808Z,23.10
2022-12-13T09:30:36.522Z,18.60
2022-12-13T09:33:17.668Z,15.55
2022-12-13T09:35:53.360Z,17.90
2022-12-13T09:38:22.323Z,15.95
2022-12-13T09:40:58.332Z,25.00
2022-12-13T09:43:32.420Z,15.60
2022-12-13T09:46:12.989Z,15.23
2022-12-13T09:48:51.733Z,18.50
2022-12-13T09:51:27.310Z,18.10
2022-12-13T09:54:00.148Z,14.13
2022-12-13T09:56:28.982Z,15.70
2022-12-13T09:58:59.160Z,20.80
2022-12-13T10:01:30.392Z,19.80
2022-12-13T10:04:01.402Z,25.23
2022-12-13T10:06:32.686Z,20.93
2022-12-13T10:09:02.357Z,26.37
2022-12-13T10:11:31.683Z,26.37
2022-12-13T10:14:03.802Z,23.47
2022-12-13T10:16:38.484Z,19.17
2022-12-13T10:19:29.214Z,22.30
2022-12-13T10:22:02.300Z,18.53
2022-12-13T10:24:37.400Z,21.50
2022-12-13T10:27:13.392Z,16.43
2022-12-13T10:29:56.813Z,29.10
2022-12-13T10:32:26.552Z,23.30
2022-12-13T10:34:57.799Z,29.70
2022-12-13T10:37:30.597Z,26.30
2022-12-13T10:39:59.423Z,24.07
2022-12-13T10:42:33.682Z,27.40
2022-12-13T10:45:15.934Z,18.63
2022-12-13T10:47:57.001Z,28.07
2022-12-13T10:50:28.776Z,20.53
2022-12-13T10:52:58.370Z,11.13
2022-12-13T10:55:28.691Z,15.73
2022-12-13T10:57:58.147Z,20.03
2022-12-13T11:00:33.819Z,15.37
2022-12-13T11:03:03.844Z,13.83
2022-12-13T11:05:33.509Z,15.60
2022-12-13T11:08:14.662Z,11.03
2022-12-13T11:10:42.967Z,7.00
2022-12-13T11:13:23.385Z,7.53
2022-12-13T11:15:55.708Z,11.07
2022-12-13T11:18:27.427Z,8.40
2022-12-13T11:20:58.458Z,11.43
2022-12-13T11:23:29.695Z,8.63
2022-12-13T11:25:59.306Z,11.20
2022-12-13T11:28:33.132Z,11.03
2022-12-13T11:31:05.381Z,7.33
2022-12-13T11:33:48.484Z,7.90
2022-12-13T11:36:21.033Z,9.50
2022-12-13T11:38:58.079Z,7.07
2022-12-13T11:41:31.663Z,6.57
2022-12-13T11:44:03.714Z,7.50
2022-12-13T11:46:38.468Z,8.40
2022-12-13T11:49:11.759Z,7.97
2022-12-13T11:51:42.435Z,5.57
2022-12-13T11:54:12.553Z,5.80
2022-12-13T11:56:43.464Z,5.80
2022-12-13T11:59:25.832Z,8.70
2022-12-13T12:01:56.467Z,10.83
2022-12-13T12:04:37.398Z,5.93
2022-12-13T12:07:31.263Z,8.63
2022-12-13T12:09:59.375Z,8.63
2022-12-13T12:12:31.890Z,6.83
2022-12-13T12:15:05.736Z,6.23
2022-12-13T12:17:44.265Z,5.97
2022-12-13T12:20:23.571Z,6.97
2022-12-13T12:22:58.002Z,6.70
2022-12-13T12:25:32.298Z,6.97
2022-12-13T12:28:07.225Z,8.70
2022-12-13T12:30:40.879Z,5.90
2022-12-13T12:33:15.767Z,7.03
2022-12-13T12:35:53.209Z,7.77
2022-12-13T12:38:29.970Z,6.10
2022-12-13T12:41:18.227Z,7.40
2022-12-13T12:43:47.051Z,5.47
2022-12-13T12:46:22.973Z,7.37
2022-12-13T12:49:05.449Z,7.43
2022-12-13T12:51:39.024Z,5.43
2022-12-13T12:54:14.456Z,6.30
2022-12-13T12:56:47.731Z,7.23
2022-12-13T12:59:21.507Z,8.20
2022-12-13T13:01:56.921Z,8.67
2022-12-13T13:04:28.266Z,8.83
2022-12-13T13:07:01.400Z,9.83
2022-12-13T13:09:30.780Z,6.90
2022-12-13T13:11:59.276Z,8.10
2022-12-13T13:14:32.256Z,7.40
2022-12-13T13:17:01.336Z,7.30
2022-12-13T13:19:43.672Z,8.00
2022-12-13T13:22:43.408Z,5.63
2022-12-13T13:25:22.732Z,8.00
2022-12-13T13:27:52.717Z,5.70
2022-12-13T13:30:22.409Z,5.97
2022-12-13T13:32:50.977Z,7.40
2022-12-13T13:35:53.688Z,8.73
2022-12-13T13:38:29.899Z,2.37
2022-12-13T13:40:59.445Z,22.30
2022-12-13T13:43:32.413Z,18.47
2022-12-13T13:46:10.725Z,23.77
2022-12-13T13:48:47.767Z,18.67
2022-12-13T13:51:30.979Z,17.47
2022-12-13T13:54:08.489Z,21.80
2022-12-13T13:56:50.153Z,13.70
2022-12-13T13:59:38.145Z,20.10
2022-12-13T14:02:36.098Z,20.27
2022-12-13T14:05:39.096Z,24.87
2022-12-13T14:08:24.209Z,19.07
2022-12-13T14:10:55.248Z,25.17
2022-12-13T14:13:55.882Z,26.27
2022-12-13T14:16:41.164Z,23.93
2022-12-13T14:19:30.322Z,26.87
2022-12-13T14:22:10.107Z,27.90
2022-12-13T14:24:43.568Z,11.57
2022-12-13T14:27:16.462Z,22.63
2022-12-13T14:29:48.662Z,24.20
2022-12-13T14:32:28.169Z,28.03
2022-12-13T14:34:57.598Z,23.83
2022-12-13T14:37:28.721Z,21.03
2022-12-13T14:39:57.010Z,21.67
2022-12-13T14:42:26.598Z,24.27
2022-12-13T14:44:56.268Z,23.93
2022-12-13T14:47:24.739Z,20.13
2022-12-13T14:49:55.810Z,27.47
2022-12-13T14:52:26.758Z,25.20
2022-12-13T14:54:57.989Z,21.80
2022-12-13T14:57:29.859Z,18.73
2022-12-13T15:00:00.613Z,16.90
2022-12-13T15:02:32.007Z,20.70
2022-12-13T15:05:01.743Z,24.53
2022-12-13T15:07:32.168Z,20.47
2022-12-13T15:10:02.944Z,19.17
2022-12-13T15:12:32.146Z,22.53
2022-12-13T15:15:02.712Z,19.93
2022-12-13T15:17:32.548Z,18.07
2022-12-13T15:20:01.309Z,28.33
2022-12-13T15:22:30.184Z,25.00
2022-12-13T15:25:08.900Z,25.97
2022-12-13T15:27:38.314Z,16.20
2022-12-13T15:30:10.178Z,23.00
2022-12-13T15:32:38.518Z,16.97
2022-12-13T15:35:16.584Z,21.13
2022-12-13T15:37:47.377Z,23.37
2022-12-13T15:40:16.848Z,21.73
2022-12-13T15:42:47.412Z,27.73
2022-12-13T15:45:22.680Z,16.70
2022-12-13T15:47:51.054Z,20.63
2022-12-13T15:50:31.797Z,31.23
2022-12-13T15:53:01.719Z,20.27
2022-12-13T15:55:35.401Z,26.03
2022-12-13T15:58:03.746Z,25.93
2022-12-13T16:00:34.763Z,21.77
2022-12-13T16:03:09.695Z,21.77
2022-12-13T16:05:39.246Z,17.17
2022-12-13T16:08:13.510Z,21.87
2022-12-13T16:10:48.628Z,25.43
2022-12-13T16:13:26.158Z,23.67
2022-12-13T16:15:59.741Z,26.37
2022-12-13T16:18:32.855Z,23.63
2022-12-13T16:21:01.141Z,19.33
2022-12-13T16:23:29.654Z,27.80
2022-12-13T16:25:58.110Z,23.17
2022-12-13T16:28:26.447Z,18.27
2022-12-13T16:31:00.954Z,22.33
2022-12-13T16:33:29.211Z,37.53
2022-12-13T16:35:57.996Z,19.90
2022-12-13T16:38:27.470Z,23.00
2022-12-13T16:40:56.704Z,24.07
2022-12-13T16:43:31.551Z,21.00
2022-12-13T16:47:12.610Z,20.20
2022-12-13T16:48:53.245Z,22.07
2022-12-13T16:51:22.149Z,22.13
2022-12-13T16:53:50.709Z,22.40
2022-12-13T16:56:21.646Z,18.97
2022-12-13T16:58:50.782Z,18.80
2022-12-13T17:01:21.539Z,21.80
2022-12-13T17:03:50.095Z,20.97
2022-12-13T17:06:21.183Z,18.83
2022-12-13T17:08:49.456Z,25.40
2022-12-13T17:11:18.542Z,19.13
2022-12-13T17:13:48.126Z,20.47
2022-12-13T17:16:16.400Z,18.97
2022-12-13T17:18:46.319Z,13.03
2022-12-13T17:21:15.044Z,26.57
2022-12-13T17:23:43.454Z,13.20
2022-12-13T17:26:12.179Z,11.03
2022-12-13T17:28:40.719Z,14.43
2022-12-13T17:31:09.802Z,16.83
2022-12-13T17:33:38.352Z,13.23
2022-12-13T17:36:09.592Z,16.03
2022-12-13T17:38:38.277Z,11.87
2022-12-13T17:41:06.666Z,17.83
2022-12-13T17:43:35.775Z,16.70
2022-12-13T17:46:05.060Z,15.40
2022-12-13T17:48:39.555Z,16.50
2022-12-13T17:51:10.610Z,19.10
2022-12-13T17:53:40.247Z,14.27
2022-12-13T17:56:09.487Z,17.27
2022-12-13T17:58:37.895Z,15.33
2022-12-13T18:01:16.182Z,13.37
2022-12-13T18:03:44.818Z,13.80
2022-12-13T18:06:14.461Z,15.43
2022-12-13T18:08:44.475Z,14.90
2022-12-13T18:14:01.789Z,9.77
2022-12-13T18:16:36.318Z,7.20
2022-12-13T18:19:06.856Z,12.50
2022-12-13T18:21:37.931Z,11.27
2022-12-13T18:24:06.878Z,11.37
2022-12-13T18:26:35.514Z,14.80
2022-12-13T18:29:03.840Z,11.33
2022-12-13T18:31:32.194Z,11.27
2022-12-13T18:34:01.636Z,10.23
2022-12-13T18:36:30.005Z,12.20
2022-12-13T18:38:59.877Z,15.60
2022-12-13T18:41:29.203Z,12.10
2022-12-13T18:43:59.600Z,14.17
2022-12-13T18:46:28.883Z,9.77
2022-12-13T18:48:57.722Z,8.60
2022-12-13T18:51:26.038Z,9.27
2022-12-13T18:53:54.724Z,14.70
2022-12-13T18:56:24.812Z,14.13
2022-12-13T18:58:53.384Z,11.07
2022-12-13T19:01:22.910Z,13.50
2022-12-13T19:03:52.290Z,10.23
2022-12-13T19:06:22.177Z,11.33
2022-12-13T19:08:51.271Z,11.90
2022-12-13T19:11:20.077Z,10.23
2022-12-13T19:13:50.466Z,11.57
2022-12-13T19:16:20.387Z,13.00
2022-12-13T19:18:49.515Z,9.70
2022-12-13T19:21:19.361Z,14.93
2022-12-13T19:23:55.077Z,16.00
2022-12-13T19:26:25.970Z,14.23
2022-12-13T19:28:57.374Z,8.60
2022-12-13T19:31:31.019Z,9.80
2022-12-13T19:34:01.200Z,10.37
2022-12-13T19:36:29.591Z,11.67
2022-12-13T19:38:57.881Z,11.90
2022-12-13T19:41:26.318Z,7.80
2022-12-13T19:43:56.177Z,11.70
2022-12-13T19:46:24.790Z,13.20
2022-12-13T19:48:53.200Z,10.93
2022-12-13T19:51:21.647Z,13.07
2022-12-13T19:53:50.535Z,13.20
2022-12-13T19:56:19.539Z,10.43
2022-12-13T19:58:48.693Z,12.43
2022-12-13T20:01:19.168Z,10.27
2022-12-13T20:03:48.163Z,13.60
2022-12-13T20:06:17.780Z,10.43
2022-12-13T20:08:46.738Z,11.40
2022-12-13T20:11:15.823Z,11.57
2022-12-13T20:13:44.622Z,11.33
2022-12-13T20:16:16.937Z,16.23
2022-12-13T20:18:47.217Z,8.40
2022-12-13T20:21:16.151Z,8.43
2022-12-13T20:23:49.337Z,14.27
2022-12-13T20:26:21.668Z,11.67
2022-12-13T20:28:50.280Z,13.03
2022-12-13T20:31:19.551Z,12.73
2022-12-13T20:33:49.770Z,10.40
2022-12-13T20:36:24.831Z,15.53
2022-12-13T20:38:53.799Z,14.07
2022-12-13T20:41:22.264Z,14.37
2022-12-13T20:43:52.934Z,11.80
2022-12-13T20:46:30.200Z,15.73
2022-12-13T20:49:00.831Z,17.50
2022-12-13T20:51:30.409Z,9.43
2022-12-13T20:53:58.833Z,13.07
2022-12-13T20:56:27.907Z,16.80
2022-12-13T20:58:56.596Z,13.93
2022-12-13T21:01:25.994Z,17.57
2022-12-13T21:03:55.215Z,9.90
2022-12-13T21:06:25.038Z,15.17
2022-12-13T21:08:54.452Z,19.03
2022-12-13T21:11:26.812Z,11.17
2022-12-13T21:13:56.664Z,9.20
2022-12-13T21:16:25.709Z,19.73
2022-12-13T21:18:54.557Z,17.57
2022-12-13T21:21:23.168Z,14.90
2022-12-13T21:23:53.049Z,17.70
2022-12-13T21:26:22.940Z,14.30
2022-12-13T21:28:53.567Z,18.20
2022-12-13T21:31:23.412Z,17.93
2022-12-13T21:34:00.621Z,13.80
2022-12-13T21:36:30.351Z,13.60
2022-12-13T21:39:01.227Z,15.53
2022-12-13T21:41:30.940Z,15.63
2022-12-13T21:44:00.519Z,12.60
2022-12-13T21:46:55.190Z,15.00
2022-12-13T21:49:19.590Z,13.50
2022-12-13T21:51:48.653Z,13.60
2022-12-13T21:54:18.980Z,24.07
2022-12-13T21:57:04.928Z,13.87
2022-12-13T21:59:35.236Z,17.53
2022-12-13T22:02:14.562Z,14.83
2022-12-13T22:04:44.489Z,13.90
2022-12-13T22:07:13.410Z,16.80
2022-12-13T22:09:43.186Z,16.07
2022-12-13T22:12:12.265Z,16.37
2022-12-13T22:14:40.501Z,16.27
2022-12-13T22:17:08.710Z,16.50
2022-12-13T22:19:37.027Z,19.83
2022-12-13T22:22:05.579Z,15.47
2022-12-13T22:24:33.821Z,14.80
2022-12-13T22:27:03.596Z,14.80
2022-12-13T22:29:31.904Z,18.03
2022-12-13T22:32:00.249Z,9.93
2022-12-13T22:34:28.541Z,15.93
2022-12-13T22:36:56.841Z,17.70
2022-12-13T22:39:25.905Z,15.27
2022-12-13T22:41:54.524Z,18.23
2022-12-13T22:44:24.109Z,14.90
2022-12-13T22:46:52.333Z,17.87
2022-12-13T22:49:20.727Z,17.23
2022-12-13T22:51:48.995Z,21.33
2022-12-13T22:54:17.427Z,18.50
2022-12-13T22:56:45.696Z,17.50
2022-12-13T22:59:13.923Z,24.23
2022-12-13T23:01:47.249Z,22.60
2022-12-13T23:04:16.349Z,18.87
2022-12-13T23:06:44.651Z,20.80
2022-12-13T23:09:15.111Z,21.13
2022-12-13T23:12:01.083Z,19.53
2022-12-13T23:14:30.369Z,17.17
2022-12-13T23:17:00.305Z,16.20
2022-12-13T23:19:50.785Z,18.70
2022-12-13T23:22:16.947Z,20.33
2022-12-13T23:24:45.204Z,17.40
2022-12-13T23:27:13.587Z,19.47
2022-12-13T23:29:41.819Z,19.27
2022-12-13T23:32:11.510Z,16.07
2022-12-13T23:34:39.776Z,17.83
2022-12-13T23:37:08.031Z,13.57
2022-12-13T23:39:36.307Z,19.47
2022-12-13T23:42:04.704Z,19.90
2022-12-13T23:44:32.974Z,18.03
2022-12-13T23:47:01.228Z,15.87
2022-12-13T23:49:30.905Z,19.20
2022-12-13T23:51:59.192Z,18.20
2022-12-13T23:54:27.507Z,16.67
2022-12-13T23:56:55.792Z,21.30
2022-12-13T23:59:25.955Z,18.97
